Kaami — C6VO9 — position and weather

sailwx.info

Track history (hours):
 
Tides and Currents Weather Stations Pressure Air Temp Water Temp Dewpoint Dewpoint Depression Visibility Wind Speed Wind Dir Waves Ship Positions

Kaami

Last reported at 2016-Jul-26 10:12 UTC. Time now 2016-Jul-26 14:11 UTC.
Position N 37°40' W 000°24'.

Length 90 m; draft 3.7 m.

Type: Cargo ship. MMSI: 308542000.

Date/timePositionNaut miles runAvg speedWind from/ knotsBaromVisibWave heightAir tempDewpointWater temp
2016-Jul-26 10:12N 37°40' W 000°24'6 7.7
2016-Jul-26 09:24N 37°36' W 000°29'9 7.9
2016-Jul-26 08:18N 37°29' W 000°37'6 8.0
2016-Jul-26 07:33N 37°25' W 000°42'8 7.9
2016-Jul-26 06:33N 37°20' W 000°50'8 8.1
2016-Jul-26 05:33N 37°14' W 000°57'8 7.5
2016-Jul-26 04:32N 37°09' W 001°04'7 7.1
2016-Jul-26 03:33N 37°05' W 001°11'9 7.0
2016-Jul-26 02:15N 36°58' W 001°19'5 7.0
2016-Jul-26 01:33N 36°55' W 001°24'10 7.3
2016-Jul-26 00:08N 36°48' W 001°33'7 7.1
2016-Jul-25 23:12N 36°44' W 001°39'5 7.2
2016-Jul-25 22:33N 36°41' W 001°44'168 7.9
2016-Jul-25 01:16N 36°07' W 005°08'5 7.6
2016-Jul-25 00:33N 36°06' W 005°14'8 7.9
2016-Jul-24 23:33N 36°07' W 005°24'4 3.5
2016-Jul-24 22:33N 36°11' W 005°25'0 0.0
2016-Jul-24 21:33N 36°11' W 005°25'0 0.0
2016-Jul-24 19:30N 36°11' W 005°25'0 0.0
2016-Jul-24 18:27N 36°11' W 005°25'0 0.0
2016-Jul-24 17:27N 36°11' W 005°25'0 0.0
2016-Jul-24 13:15N 36°11' W 005°25'0 0.0
2016-Jul-24 12:33N 36°11' W 005°25'0 0.0
2016-Jul-24 08:30N 36°11' W 005°25'0 0.0
2016-Jul-24 07:33N 36°11' W 005°25'0 0.0
2016-Jul-24 06:30N 36°11' W 005°25'0 0.0
2016-Jul-24 05:24N 36°11' W 005°25'0 0.0
2016-Jul-24 04:33N 36°11' W 005°25'0 0.0
2016-Jul-24 03:30N 36°11' W 005°25'0 0.0
2016-Jul-24 02:33N 36°11' W 005°25'0 0.0
2016-Jul-24 01:33N 36°11' W 005°25'0 0.0
2016-Jul-23 23:24N 36°11' W 005°25'0 0.0
2016-Jul-23 22:24N 36°11' W 005°25'0 0.0
2016-Jul-23 21:32N 36°11' W 005°25'0 0.0
2016-Jul-23 20:26N 36°11' W 005°25'0 0.0
2016-Jul-23 19:23N 36°11' W 005°25'0 0.0
2016-Jul-23 16:05N 36°11' W 005°25'0 0.0
2016-Jul-23 15:32N 36°11' W 005°25'0 0.0
2016-Jul-23 14:26N 36°11' W 005°25'0 0.0
2016-Jul-23 13:32N 36°11' W 005°25'0 0.0
2016-Jul-23 12:32N 36°11' W 005°25'0 0.0
2016-Jul-23 09:32N 36°11' W 005°25'0 0.1
2016-Jul-23 04:25N 36°10' W 005°25'0 0.0
2016-Jul-23 02:13N 36°10' W 005°25'0 0.0
2016-Jul-23 01:31N 36°10' W 005°25'0 0.1
2016-Jul-23 00:28N 36°10' W 005°25'0 0.0
2016-Jul-22 22:07N 36°10' W 005°25'0 0.0
2016-Jul-22 21:31N 36°10' W 005°25'0 0.0
2016-Jul-22 20:16N 36°10' W 005°25'0 0.0
2016-Jul-22 19:28N 36°10' W 005°25'0 0.0
2016-Jul-22 17:28N 36°10' W 005°25'0 0.0
2016-Jul-22 12:15N 36°10' W 005°25'0 0.0
2016-Jul-22 11:30N 36°10' W 005°25'0 0.0
2016-Jul-22 10:30N 36°10' W 005°25'0 0.0
2016-Jul-21 23:12N 36°10' W 005°25'0 0.0
2016-Jul-21 22:27N 36°10' W 005°25'0 0.0
2016-Jul-21 21:24N 36°10' W 005°25'0 0.0
2016-Jul-21 17:30N 36°10' W 005°25'0 0.0
2016-Jul-21 16:33N 36°10' W 005°25'0 0.0
2016-Jul-21 15:30N 36°10' W 005°25'0 0.0
2016-Jul-21 14:33N 36°10' W 005°25'0 0.2
2016-Jul-21 13:27N 36°10' W 005°25'0 0.1
2016-Jul-21 12:30N 36°10' W 005°25'0 0.0
2016-Jul-21 11:33N 36°10' W 005°25'0 0.0
2016-Jul-21 10:33N 36°10' W 005°25'0 0.0
2016-Jul-21 09:33N 36°10' W 005°25'0 0.0
2016-Jul-21 08:30N 36°10' W 005°25'0 0.0
2016-Jul-21 07:33N 36°10' W 005°25'0 0.0
2016-Jul-21 05:33N 36°10' W 005°25'0 0.0
2016-Jul-21 04:23N 36°10' W 005°25'0 0.1
2016-Jul-21 03:23N 36°10' W 005°25'0 0.1
2016-Jul-21 02:32N 36°10' W 005°25'0 0.0
2016-Jul-21 01:11N 36°10' W 005°25'0 0.0
2016-Jul-21 00:32N 36°10' W 005°25'0 0.0
2016-Jul-20 23:20N 36°10' W 005°25'0 0.1
2016-Jul-20 22:20N 36°10' W 005°25'0 0.1
2016-Jul-20 21:32N 36°10' W 005°25'0 0.0
2016-Jul-20 20:32N 36°10' W 005°25'0 0.0
2016-Jul-20 19:32N 36°10' W 005°25'0 0.0
2016-Jul-20 18:32N 36°10' W 005°25'0 0.0
2016-Jul-20 17:32N 36°10' W 005°25'0 0.0
2016-Jul-20 16:32N 36°10' W 005°25'0 0.0
2016-Jul-20 15:29N 36°10' W 005°26'0 0.0
2016-Jul-20 14:32N 36°10' W 005°26'0 0.0
2016-Jul-20 13:23N 36°10' W 005°25'0 0.0
2016-Jul-20 12:08N 36°10' W 005°25'0 0.0
2016-Jul-20 11:29N 36°10' W 005°25'0 0.0
2016-Jul-20 07:20N 36°10' W 005°25'0 0.0
2016-Jul-20 06:29N 36°10' W 005°25'0 0.0
2016-Jul-20 05:32N 36°10' W 005°25'0 0.0
2016-Jul-20 04:32N 36°10' W 005°25'0 0.0
2016-Jul-20 03:26N 36°10' W 005°25'0 0.1
2016-Jul-20 02:26N 36°10' W 005°26'0 0.0
2016-Jul-20 01:17N 36°10' W 005°26'0 0.0
2016-Jul-20 00:32N 36°10' W 005°26'0 0.0
2016-Jul-19 16:31N 36°10' W 005°25'0 0.0
2016-Jul-19 15:28N 36°10' W 005°25'1 0.7
2016-Jul-19 13:32N 36°09' W 005°25'4 4.2
2016-Jul-19 12:33N 36°05' W 005°24'1 1.5
2016-Jul-19 11:33N 36°03' W 005°23'7 7.1
2016-Jul-19 10:33N 35°57' W 005°28'187 6.2
2016-Jul-18 04:21N 36°34' W 009°15'7 7.6
2016-Jul-18 03:29N 36°39' W 009°21'7 7.5
2016-Jul-18 02:33N 36°44' W 009°27'8 7.6
2016-Jul-18 01:33N 36°50' W 009°33'8 7.9
2016-Jul-18 00:33N 36°58' W 009°35'9 7.7
2016-Jul-17 23:26N 37°06' W 009°38'7 7.9
2016-Jul-17 22:33N 37°13' W 009°40'8 8.1
2016-Jul-17 21:33N 37°21' W 009°42'8 7.9
2016-Jul-17 20:33N 37°29' W 009°44'8 8.1
2016-Jul-17 19:33N 37°37' W 009°45'8 8.0
2016-Jul-17 18:33N 37°44' W 009°48'8 8.2
2016-Jul-17 17:33N 37°52' W 009°51'8 8.4
2016-Jul-17 16:33N 38°00' W 009°53'8 8.1
2016-Jul-17 15:33N 38°08' W 009°55'8 8.2
2016-Jul-17 14:33N 38°16' W 009°58'10 9.7
2016-Jul-17 13:33N 38°26' W 010°00'10 9.8
2016-Jul-17 12:33N 38°35' W 010°03'10 9.6
2016-Jul-17 11:33N 38°45' W 010°05'9 9.2
2016-Jul-17 10:33N 38°54' W 010°05'9 8.6
2016-Jul-17 09:33N 39°03' W 010°05'9 8.9
2016-Jul-17 08:33N 39°11' W 010°05'9 9.1
2016-Jul-17 07:31N 39°21' W 010°05'9 9.0
2016-Jul-17 06:33N 39°30' W 010°05'19 9.1
2016-Jul-17 04:29N 39°48' W 010°05'31 9.2
2016-Jul-17 01:10N 40°19' W 010°05'43 9.1
2016-Jul-16 20:22N 41°02' W 010°05'9 9.1
2016-Jul-16 19:23N 41°11' W 010°05'8 9.1
2016-Jul-16 18:31N 41°19' W 010°06'  
Track history (hours):
 
Tides and Currents Weather Stations Pressure Air Temp Water Temp Dewpoint Dewpoint Depression Visibility Wind Speed Wind Dir Waves Ship Positions

Kaami

Last reported at 2016-Jul-26 10:12 UTC. Time now 2016-Jul-26 14:11 UTC.
Position N 37°40' W 000°24'.

Length 90 m; draft 3.7 m.

Type: Cargo ship. MMSI: 308542000.

Date/timePositionNaut miles runAvg speedWind from/ knotsBaromVisibWave heightAir tempDewpointWater temp
2016-Jul-26 10:12N 37°40' W 000°24'6 7.7
2016-Jul-26 09:24N 37°36' W 000°29'9 7.9
2016-Jul-26 08:18N 37°29' W 000°37'6 8.0
2016-Jul-26 07:33N 37°25' W 000°42'8 7.9
2016-Jul-26 06:33N 37°20' W 000°50'8 8.1
2016-Jul-26 05:33N 37°14' W 000°57'8 7.5
2016-Jul-26 04:32N 37°09' W 001°04'7 7.1
2016-Jul-26 03:33N 37°05' W 001°11'9 7.0
2016-Jul-26 02:15N 36°58' W 001°19'5 7.0
2016-Jul-26 01:33N 36°55' W 001°24'10 7.3
2016-Jul-26 00:08N 36°48' W 001°33'7 7.1
2016-Jul-25 23:12N 36°44' W 001°39'5 7.2
2016-Jul-25 22:33N 36°41' W 001°44'168 7.9
2016-Jul-25 01:16N 36°07' W 005°08'5 7.6
2016-Jul-25 00:33N 36°06' W 005°14'8 7.9
2016-Jul-24 23:33N 36°07' W 005°24'4 3.5
2016-Jul-24 22:33N 36°11' W 005°25'0 0.0
2016-Jul-24 21:33N 36°11' W 005°25'0 0.0
2016-Jul-24 19:30N 36°11' W 005°25'0 0.0
2016-Jul-24 18:27N 36°11' W 005°25'0 0.0
2016-Jul-24 17:27N 36°11' W 005°25'0 0.0
2016-Jul-24 13:15N 36°11' W 005°25'0 0.0
2016-Jul-24 12:33N 36°11' W 005°25'0 0.0
2016-Jul-24 08:30N 36°11' W 005°25'0 0.0
2016-Jul-24 07:33N 36°11' W 005°25'0 0.0
2016-Jul-24 06:30N 36°11' W 005°25'0 0.0
2016-Jul-24 05:24N 36°11' W 005°25'0 0.0
2016-Jul-24 04:33N 36°11' W 005°25'0 0.0
2016-Jul-24 03:30N 36°11' W 005°25'0 0.0
2016-Jul-24 02:33N 36°11' W 005°25'0 0.0
2016-Jul-24 01:33N 36°11' W 005°25'0 0.0
2016-Jul-23 23:24N 36°11' W 005°25'0 0.0
2016-Jul-23 22:24N 36°11' W 005°25'0 0.0
2016-Jul-23 21:32N 36°11' W 005°25'0 0.0
2016-Jul-23 20:26N 36°11' W 005°25'0 0.0
2016-Jul-23 19:23N 36°11' W 005°25'0 0.0
2016-Jul-23 16:05N 36°11' W 005°25'0 0.0
2016-Jul-23 15:32N 36°11' W 005°25'0 0.0
2016-Jul-23 14:26N 36°11' W 005°25'0 0.0
2016-Jul-23 13:32N 36°11' W 005°25'0 0.0
2016-Jul-23 12:32N 36°11' W 005°25'0 0.0
2016-Jul-23 09:32N 36°11' W 005°25'0 0.1
2016-Jul-23 04:25N 36°10' W 005°25'0 0.0
2016-Jul-23 02:13N 36°10' W 005°25'0 0.0
2016-Jul-23 01:31N 36°10' W 005°25'0 0.1
2016-Jul-23 00:28N 36°10' W 005°25'0 0.0
2016-Jul-22 22:07N 36°10' W 005°25'0 0.0
2016-Jul-22 21:31N 36°10' W 005°25'0 0.0
2016-Jul-22 20:16N 36°10' W 005°25'0 0.0
2016-Jul-22 19:28N 36°10' W 005°25'0 0.0
2016-Jul-22 17:28N 36°10' W 005°25'0 0.0
2016-Jul-22 12:15N 36°10' W 005°25'0 0.0
2016-Jul-22 11:30N 36°10' W 005°25'0 0.0
2016-Jul-22 10:30N 36°10' W 005°25'0 0.0
2016-Jul-21 23:12N 36°10' W 005°25'0 0.0
2016-Jul-21 22:27N 36°10' W 005°25'0 0.0
2016-Jul-21 21:24N 36°10' W 005°25'0 0.0
2016-Jul-21 17:30N 36°10' W 005°25'0 0.0
2016-Jul-21 16:33N 36°10' W 005°25'0 0.0
2016-Jul-21 15:30N 36°10' W 005°25'0 0.0
2016-Jul-21 14:33N 36°10' W 005°25'0 0.2
2016-Jul-21 13:27N 36°10' W 005°25'0 0.1
2016-Jul-21 12:30N 36°10' W 005°25'0 0.0
2016-Jul-21 11:33N 36°10' W 005°25'0 0.0
2016-Jul-21 10:33N 36°10' W 005°25'0 0.0
2016-Jul-21 09:33N 36°10' W 005°25'0 0.0
2016-Jul-21 08:30N 36°10' W 005°25'0 0.0
2016-Jul-21 07:33N 36°10' W 005°25'0 0.0
2016-Jul-21 05:33N 36°10' W 005°25'0 0.0
2016-Jul-21 04:23N 36°10' W 005°25'0 0.1
2016-Jul-21 03:23N 36°10' W 005°25'0 0.1
2016-Jul-21 02:32N 36°10' W 005°25'0 0.0
2016-Jul-21 01:11N 36°10' W 005°25'0 0.0
2016-Jul-21 00:32N 36°10' W 005°25'0 0.0
2016-Jul-20 23:20N 36°10' W 005°25'0 0.1
2016-Jul-20 22:20N 36°10' W 005°25'0 0.1
2016-Jul-20 21:32N 36°10' W 005°25'0 0.0
2016-Jul-20 20:32N 36°10' W 005°25'0 0.0
2016-Jul-20 19:32N 36°10' W 005°25'0 0.0
2016-Jul-20 18:32N 36°10' W 005°25'0 0.0
2016-Jul-20 17:32N 36°10' W 005°25'0 0.0
2016-Jul-20 16:32N 36°10' W 005°25'0 0.0
2016-Jul-20 15:29N 36°10' W 005°26'0 0.0
2016-Jul-20 14:32N 36°10' W 005°26'0 0.0
2016-Jul-20 13:23N 36°10' W 005°25'0 0.0
2016-Jul-20 12:08N 36°10' W 005°25'0 0.0
2016-Jul-20 11:29N 36°10' W 005°25'0 0.0
2016-Jul-20 07:20N 36°10' W 005°25'0 0.0
2016-Jul-20 06:29N 36°10' W 005°25'0 0.0
2016-Jul-20 05:32N 36°10' W 005°25'0 0.0
2016-Jul-20 04:32N 36°10' W 005°25'0 0.0
2016-Jul-20 03:26N 36°10' W 005°25'0 0.1
2016-Jul-20 02:26N 36°10' W 005°26'0 0.0
2016-Jul-20 01:17N 36°10' W 005°26'0 0.0
2016-Jul-20 00:32N 36°10' W 005°26'0 0.0
2016-Jul-19 16:31N 36°10' W 005°25'0 0.0
2016-Jul-19 15:28N 36°10' W 005°25'1 0.7
2016-Jul-19 13:32N 36°09' W 005°25'4 4.2
2016-Jul-19 12:33N 36°05' W 005°24'1 1.5
2016-Jul-19 11:33N 36°03' W 005°23'7 7.1
2016-Jul-19 10:33N 35°57' W 005°28'187 6.2
2016-Jul-18 04:21N 36°34' W 009°15'7 7.6
2016-Jul-18 03:29N 36°39' W 009°21'7 7.5
2016-Jul-18 02:33N 36°44' W 009°27'8 7.6
2016-Jul-18 01:33N 36°50' W 009°33'8 7.9
2016-Jul-18 00:33N 36°58' W 009°35'9 7.7
2016-Jul-17 23:26N 37°06' W 009°38'7 7.9
2016-Jul-17 22:33N 37°13' W 009°40'8 8.1
2016-Jul-17 21:33N 37°21' W 009°42'8 7.9
2016-Jul-17 20:33N 37°29' W 009°44'8 8.1
2016-Jul-17 19:33N 37°37' W 009°45'8 8.0
2016-Jul-17 18:33N 37°44' W 009°48'8 8.2
2016-Jul-17 17:33N 37°52' W 009°51'8 8.4
2016-Jul-17 16:33N 38°00' W 009°53'8 8.1
2016-Jul-17 15:33N 38°08' W 009°55'8 8.2
2016-Jul-17 14:33N 38°16' W 009°58'10 9.7
2016-Jul-17 13:33N 38°26' W 010°00'10 9.8
2016-Jul-17 12:33N 38°35' W 010°03'10 9.6
2016-Jul-17 11:33N 38°45' W 010°05'9 9.2
2016-Jul-17 10:33N 38°54' W 010°05'9 8.6
2016-Jul-17 09:33N 39°03' W 010°05'9 8.9
2016-Jul-17 08:33N 39°11' W 010°05'9 9.1
2016-Jul-17 07:31N 39°21' W 010°05'9 9.0
2016-Jul-17 06:33N 39°30' W 010°05'19 9.1
2016-Jul-17 04:29N 39°48' W 010°05'31 9.2
2016-Jul-17 01:10N 40°19' W 010°05'43 9.1
2016-Jul-16 20:22N 41°02' W 010°05'9 9.1
2016-Jul-16 19:23N 41°11' W 010°05'8 9.1
2016-Jul-16 18:31N 41°19' W 010°06'  

Dump ship's entire track history